WDR weather

Barrow County Airport
Winder, Georgia, United States

Public forecast

Using degrees Fahrenheit for public forecast. Weather courtesy of forecast.io.

Current aviation weather report (METAR) for Barrow County Airport

Retrieved 2019/10/22 02:35 UTC (0 seconds ago):

KWDR 220235Z AUTO 00000KT 10SM SCT120 20/19 A3002 RMK AO2

Closest aviation forecast (TAF) to Barrow County Airport

Closest forecast is Athens Ben Epps Airport, 17.1 nm (31.7 km) E. Retrieved 2019-10-22 00:24 UTC (2 hours ago):

TAF KAHN 212320Z 2200/2224 13003KT P6SM SCT035 SCT070 OVC150 FM220500 14005KT P6SM -SHRA SCT005 OVC015 TEMPO 2205/2209 5SM TSRA BKN007 OVC015CB FM220900 19005KT 4SM -SHRA BR OVC005 FM221300 27007KT P6SM VCSH SCT006 BKN015 FM221500 29008KT P6SM FEW015 SCT050 FM221800 28010KT P6SM SKC